Time;durP1;ratioP1;P1;durP2;ratioP2;P2;SDS_P1;SDS_P2;PMS_P1;PMS_P2;Temp;Humidity;BMP_temperature;BMP_pressure;BME280_temperature;BME280_humidity;BME280_pressure;Samples;Min_cycle;Max_cycle;Signal;HPM_P1;HPM_P2
2023/10/04 00:00:59;;;;;;;0.70;0.70;;;12.20;99.90;12.20;101276.00;;;;5009694;27;87842;-64
2023/10/04 00:03:27;;;;;;;2.57;1.23;;;12.20;99.90;12.10;101280.00;;;;5009084;27;88325;-64
2023/10/04 00:05:54;;;;;;;1.50;0.97;;;12.50;99.90;12.10;101267.00;;;;5008587;27;88375;-63
2023/10/04 00:08:19;;;;;;;1.73;0.67;;;12.10;99.90;12.10;101273.00;;;;5009819;27;88923;-64
2023/10/04 00:10:45;;;;;;;1.23;0.97;;;12.10;99.90;12.10;101274.00;;;;5008581;27;87878;-64
2023/10/04 00:13:13;;;;;;;1.17;0.77;;;12.10;99.90;12.10;101276.00;;;;5009647;27;109961;-64
2023/10/04 00:15:39;;;;;;;13.03;1.03;;;12.10;99.90;12.10;101287.00;;;;4996256;27;116551;-63
2023/10/04 00:18:06;;;;;;;1.33;0.50;;;12.10;99.90;12.10;101279.00;;;;5008660;27;88251;-64
2023/10/04 00:20:32;;;;;;;0.70;0.60;;;12.10;99.90;12.10;101280.00;;;;5012130;27;87889;-64
2023/10/04 00:22:58;;;;;;;1.80;1.03;;;12.10;99.90;12.10;101283.00;;;;5009511;27;88992;-64
2023/10/04 00:25:23;;;;;;;1.40;1.23;;;12.10;99.90;12.10;101288.00;;;;5008652;27;108021;-64
2023/10/04 00:27:52;;;;;;;1.47;0.63;;;12.10;99.90;12.10;101286.00;;;;5010662;27;95045;-64
2023/10/04 00:30:20;;;;;;;4.00;0.60;;;12.10;99.90;12.10;101291.00;;;;5009931;27;87988;-64
2023/10/04 00:32:46;;;;;;;1.03;0.67;;;12.10;99.90;12.10;101283.00;;;;5007933;27;97207;-64
2023/10/04 00:35:19;;;;;;;0.60;0.60;;;12.10;99.90;12.00;101283.00;;;;5009393;27;87884;-63
2023/10/04 00:37:55;;;;;;;2.13;1.53;;;12.30;99.90;12.00;101286.00;;;;5005130;27;88403;-63
2023/10/04 00:40:28;;;;;;;1.20;0.63;;;12.00;99.90;12.10;101283.00;;;;5006330;27;90542;-63
2023/10/04 00:42:55;;;;;;;0.73;0.50;;;12.10;99.90;12.10;101285.00;;;;5011480;27;88034;-63
2023/10/04 00:45:23;;;;;;;1.10;1.00;;;12.10;99.90;12.00;101290.00;;;;5006320;27;89207;-63
2023/10/04 00:47:57;;;;;;;1.50;0.70;;;12.10;99.90;12.00;101285.00;;;;5006706;27;90250;-63
2023/10/04 00:50:26;;;;;;;2.00;1.03;;;12.00;99.90;12.00;101291.00;;;;5010670;27;87829;-64
2023/10/04 00:52:57;;;;;;;0.30;0.30;;;12.00;99.90;12.00;101282.00;;;;4992610;27;88102;-64
2023/10/04 00:55:24;;;;;;;0.50;0.50;;;12.00;99.90;12.00;101279.00;;;;5008548;27;89006;-63
2023/10/04 00:57:54;;;;;;;0.70;0.70;;;12.00;99.90;12.00;101280.00;;;;5009448;27;88476;-64
2023/10/04 01:00:21;;;;;;;1.67;0.90;;;12.00;99.90;11.90;101274.00;;;;5008916;27;87948;-64
2023/10/04 01:02:48;;;;;;;0.43;0.43;;;11.90;99.90;11.90;101280.00;;;;5006310;27;88312;-62
2023/10/04 01:05:16;;;;;;;0.77;0.33;;;12.00;99.90;11.90;101271.00;;;;5008516;27;88019;-63
2023/10/04 01:07:43;;;;;;;0.73;0.73;;;11.90;99.90;11.90;101279.00;;;;4991989;27;87945;-63
2023/10/04 01:10:30;;;;;;;1.40;0.80;;;11.90;99.90;11.90;101270.00;;;;4992467;27;87973;-63
2023/10/04 01:12:56;;;;;;;4.90;0.57;;;11.90;99.90;11.80;101273.00;;;;5004358;27;91679;-63
2023/10/04 01:15:32;;;;;;;3.10;1.00;;;11.90;99.90;11.80;101264.00;;;;5004533;27;89047;-63
2023/10/04 01:18:00;;;;;;;1.30;0.80;;;11.80;99.90;11.80;101272.00;;;;5008615;27;88527;-63
2023/10/04 01:20:30;;;;;;;0.50;0.50;;;11.80;99.90;11.70;101268.00;;;;5006214;27;87959;-63
2023/10/04 01:23:05;;;;;;;5.43;0.67;;;11.70;99.90;11.70;101268.00;;;;4993719;27;88851;-63
2023/10/04 01:25:33;;;;;;;1.17;0.80;;;11.70;99.90;11.70;101264.00;;;;5011158;27;89179;-63
2023/10/04 01:28:12;;;;;;;1.00;0.60;;;11.70;99.90;11.60;101254.00;;;;5002537;27;88754;-62
2023/10/04 01:30:46;;;;;;;1.90;0.60;;;11.70;99.90;11.60;101250.00;;;;5012773;27;87097;-64
2023/10/04 01:33:15;;;;;;;1.30;1.20;;;11.70;99.90;11.60;101254.00;;;;5006374;27;87934;-63
2023/10/04 01:35:48;;;;;;;1.10;1.00;;;11.70;99.90;11.60;101267.00;;;;5005904;27;88970;-64
2023/10/04 01:38:15;;;;;;;0.63;0.63;;;11.60;99.90;11.60;101260.00;;;;5008388;27;89922;-63
2023/10/04 01:40:50;;;;;;;1.10;0.77;;;11.60;99.90;11.50;101266.00;;;;5007339;27;87806;-63
2023/10/04 01:43:16;;;;;;;0.53;0.53;;;11.60;99.90;11.60;101272.00;;;;5007393;27;88094;-62
2023/10/04 01:45:51;;;;;;;0.40;0.40;;;11.60;99.90;11.50;101258.00;;;;5009503;27;87910;-64
2023/10/04 01:48:20;;;;;;;6.90;0.83;;;11.60;99.90;11.50;101255.00;;;;5002461;27;88613;-64
2023/10/04 01:50:52;;;;;;;1.17;0.70;;;11.50;99.90;11.50;101259.00;;;;5006030;27;87938;-63
2023/10/04 01:53:21;;;;;;;3.57;1.33;;;11.50;99.90;11.50;101272.00;;;;5009186;27;88066;-64
2023/10/04 01:55:46;;;;;;;0.77;0.77;;;11.50;99.90;11.50;101268.00;;;;5005023;27;88425;-65
2023/10/04 01:58:14;;;;;;;3.53;0.70;;;11.50;99.90;11.50;101265.00;;;;5007089;27;117074;-63
2023/10/04 02:00:40;;;;;;;1.23;0.60;;;11.50;99.90;11.50;101258.00;;;;5005271;27;88854;-63
2023/10/04 02:03:07;;;;;;;0.70;0.60;;;11.90;99.90;11.50;101256.00;;;;5000866;27;88906;-62
2023/10/04 02:05:37;;;;;;;1.00;1.00;;;11.50;99.90;11.50;101260.00;;;;5005609;27;88850;-64
2023/10/04 02:08:09;;;;;;;1.47;0.70;;;11.50;99.90;11.50;101259.00;;;;5010307;27;87932;-62
2023/10/04 02:10:36;;;;;;;2.27;0.63;;;11.50;99.90;11.40;101262.00;;;;5005605;27;88021;-64
2023/10/04 02:13:06;;;;;;;1.53;1.37;;;11.50;99.90;11.40;101265.00;;;;5005617;27;109514;-64
2023/10/04 02:15:34;;;;;;;0.60;0.60;;;11.50;99.90;11.50;101262.00;;;;5004024;27;88063;-65
2023/10/04 02:18:01;;;;;;;1.20;0.90;;;11.50;99.90;11.50;101274.00;;;;5010651;27;105646;-65
2023/10/04 02:20:32;;;;;;;1.03;0.70;;;11.50;99.90;11.40;101260.00;;;;5004715;27;87236;-63
2023/10/04 02:22:58;;;;;;;2.60;1.07;;;11.50;99.90;11.40;101276.00;;;;5007782;27;89509;-63
2023/10/04 02:25:27;;;;;;;1.80;0.90;;;11.40;99.90;11.40;101267.00;;;;5002993;27;118714;-64
2023/10/04 02:27:55;;;;;;;0.90;0.87;;;11.40;99.90;11.40;101257.00;;;;5003257;27;90372;-64
2023/10/04 02:30:26;;;;;;;3.10;1.00;;;11.50;99.90;11.50;101276.00;;;;5003600;27;87871;-63
2023/10/04 02:32:53;;;;;;;0.60;0.60;;;11.50;99.90;11.50;101276.00;;;;5006076;27;88110;-64
2023/10/04 02:35:33;;;;;;;1.57;0.97;;;11.50;99.90;11.50;101281.00;;;;5005780;27;110078;-63
2023/10/04 02:38:00;;;;;;;0.87;0.80;;;11.50;99.90;11.50;101282.00;;;;5010114;27;87966;-64
2023/10/04 02:40:32;;;;;;;2.77;1.27;;;11.50;99.90;11.50;101293.00;;;;5005350;27;87933;-64
2023/10/04 02:42:58;;;;;;;1.13;0.97;;;11.50;99.90;11.50;101304.00;;;;5005832;27;87983;-64
2023/10/04 02:45:26;;;;;;;1.83;1.20;;;11.50;99.90;11.50;101308.00;;;;5005867;27;90473;-63
2023/10/04 02:47:53;;;;;;;4.37;0.90;;;11.50;99.90;11.50;101313.00;;;;5007119;27;88560;-64
2023/10/04 02:50:23;;;;;;;2.10;1.10;;;11.50;99.90;11.50;101317.00;;;;5003916;27;87873;-64
2023/10/04 02:52:52;;;;;;;0.80;0.80;;;11.50;99.90;11.50;101323.00;;;;5006861;27;88931;-64
2023/10/04 02:55:19;;;;;;;0.63;0.63;;;11.60;99.90;11.50;101318.00;;;;5003888;27;88981;-64
2023/10/04 02:57:49;;;;;;;1.47;0.77;;;11.50;99.90;11.50;101324.00;;;;5008728;27;100561;-63
2023/10/04 03:00:17;;;;;;;0.73;0.73;;;11.50;99.90;11.40;101320.00;;;;5008222;27;87839;-63
2023/10/04 03:02:49;;;;;;;2.03;1.03;;;11.50;99.90;11.40;101318.00;;;;5006561;27;87868;-63
2023/10/04 03:05:18;;;;;;;0.73;0.73;;;11.50;99.90;11.40;101323.00;;;;5008810;27;89125;-64
2023/10/04 03:07:45;;;;;;;4.33;1.10;;;11.40;99.90;11.40;101325.00;;;;5008625;27;89060;-64
2023/10/04 03:10:23;;;;;;;0.40;0.40;;;11.40;99.90;11.40;101322.00;;;;5007162;27;87418;-63
2023/10/04 03:12:54;;;;;;;1.53;1.07;;;11.40;99.90;11.40;101326.00;;;;4998429;27;87681;-65
2023/10/04 03:15:23;;;;;;;1.57;0.87;;;11.40;99.90;11.40;101317.00;;;;5003979;27;88410;-63
2023/10/04 03:17:51;;;;;;;0.97;0.97;;;11.40;99.90;11.40;101323.00;;;;5002923;27;89007;-63
2023/10/04 03:20:20;;;;;;;1.20;0.77;;;11.40;99.90;11.40;101320.00;;;;4987913;27;87976;-65
2023/10/04 03:22:55;;;;;;;1.50;1.00;;;11.40;99.90;11.40;101336.00;;;;4988782;27;88043;-66
2023/10/04 03:25:24;;;;;;;2.50;0.93;;;11.40;99.90;11.40;101330.00;;;;5006660;27;88059;-65
2023/10/04 03:27:50;;;;;;;1.10;0.90;;;11.40;99.90;11.40;101327.00;;;;5004666;27;88188;-63
2023/10/04 03:30:16;;;;;;;1.57;0.93;;;11.40;99.90;11.30;101332.00;;;;5003127;27;88778;-65
2023/10/04 03:32:45;;;;;;;0.83;0.70;;;11.40;99.90;11.30;101330.00;;;;5003210;27;94615;-64
2023/10/04 03:35:14;;;;;;;1.60;1.00;;;11.40;99.90;11.30;101342.00;;;;5005866;27;88627;-65
2023/10/04 03:37:48;;;;;;;1.20;0.70;;;11.40;99.90;11.30;101342.00;;;;5006659;27;88359;-65
2023/10/04 03:40:15;;;;;;;0.87;0.80;;;11.30;99.90;11.30;101326.00;;;;5002659;27;87911;-65
2023/10/04 03:42:45;;;;;;;2.43;0.97;;;11.30;99.90;11.30;101333.00;;;;5006237;27;89105;-65
2023/10/04 03:45:11;;;;;;;1.37;0.73;;;11.30;99.90;11.30;101339.00;;;;5003488;27;89136;-65
2023/10/04 03:47:38;;;;;;;3.00;0.90;;;11.30;99.90;11.30;101338.00;;;;5004252;27;89048;-66
2023/10/04 03:50:09;;;;;;;1.53;1.27;;;11.30;99.90;11.30;101338.00;;;;4994464;27;88796;-65
2023/10/04 03:52:35;;;;;;;1.67;0.77;;;11.40;99.90;11.40;101347.00;;;;5004318;27;87785;-65
2023/10/04 03:55:01;;;;;;;2.37;0.73;;;11.40;99.90;11.40;101350.00;;;;5009286;27;115771;-65
2023/10/04 03:57:27;;;;;;;0.97;0.87;;;11.40;99.90;11.40;101355.00;;;;5011959;27;89260;-65
2023/10/04 03:59:54;;;;;;;2.10;0.87;;;11.40;99.90;11.40;101336.00;;;;5008189;27;87343;-64
2023/10/04 04:02:19;;;;;;;1.60;0.90;;;11.40;99.90;11.40;101346.00;;;;5005567;27;108746;-64
2023/10/04 04:04:46;;;;;;;1.23;0.83;;;11.40;99.90;11.40;101344.00;;;;5008101;27;88444;-65
2023/10/04 04:07:11;;;;;;;0.80;0.60;;;11.40;99.90;11.50;101345.00;;;;5004718;27;88917;-65
2023/10/04 04:09:37;;;;;;;2.67;1.23;;;11.50;99.90;11.50;101347.00;;;;5003533;27;110351;-65
2023/10/04 04:12:05;;;;;;;1.60;1.30;;;11.50;99.90;11.50;101352.00;;;;5006670;27;108519;-64
2023/10/04 04:14:30;;;;;;;0.50;0.50;;;11.50;99.90;11.50;101346.00;;;;5001993;27;88331;-65
2023/10/04 04:16:56;;;;;;;1.37;1.27;;;11.50;99.90;11.50;101349.00;;;;5002613;27;116689;-64
2023/10/04 04:19:22;;;;;;;1.03;0.80;;;11.50;99.90;11.50;101358.00;;;;5003417;27;110351;-64
2023/10/04 04:21:49;;;;;;;1.07;0.90;;;11.50;99.90;11.50;101349.00;;;;5007046;27;88160;-64
2023/10/04 04:24:15;;;;;;;1.27;1.03;;;11.50;99.90;11.50;101359.00;;;;5005084;27;87915;-64
2023/10/04 04:26:41;;;;;;;1.00;0.70;;;11.50;99.90;11.40;101348.00;;;;5006874;27;87913;-64
2023/10/04 04:29:09;;;;;;;5.40;1.40;;;11.50;99.90;11.40;101358.00;;;;5005700;27;87989;-63
2023/10/04 04:31:36;;;;;;;0.77;0.77;;;11.50;99.90;11.40;101351.00;;;;5004722;27;88949;-64
2023/10/04 04:34:03;;;;;;;0.77;0.70;;;11.50;99.90;11.40;101359.00;;;;5010693;27;88393;-65
2023/10/04 04:36:32;;;;;;;0.67;0.67;;;11.40;99.90;11.40;101364.00;;;;5011416;27;87679;-64
2023/10/04 04:38:58;;;;;;;1.50;1.40;;;11.40;99.90;11.40;101362.00;;;;5009028;27;87750;-64
2023/10/04 04:41:27;;;;;;;0.97;0.87;;;11.40;99.90;11.40;101359.00;;;;5010749;27;89292;-64
2023/10/04 04:43:53;;;;;;;2.70;1.60;;;11.40;99.90;11.40;101358.00;;;;5011475;27;88662;-64
2023/10/04 04:46:22;;;;;;;1.60;1.13;;;11.40;99.90;11.40;101356.00;;;;5013710;27;87960;-65
2023/10/04 04:48:48;;;;;;;1.23;1.00;;;11.40;99.90;11.40;101357.00;;;;5010332;27;86741;-64
2023/10/04 04:51:15;;;;;;;3.10;1.03;;;11.40;99.90;11.30;101349.00;;;;5006196;27;87697;-64
2023/10/04 04:53:42;;;;;;;1.03;0.93;;;11.40;99.90;11.30;101360.00;;;;5010839;27;88525;-64
2023/10/04 04:56:12;;;;;;;1.10;1.00;;;11.30;99.90;11.30;101363.00;;;;5005945;27;88911;-64
2023/10/04 04:58:47;;;;;;;1.00;0.93;;;11.30;99.90;11.30;101369.00;;;;5004998;27;88296;-65
2023/10/04 05:01:13;;;;;;;1.30;1.17;;;11.30;99.90;11.30;101368.00;;;;5006310;27;87780;-65
2023/10/04 05:03:45;;;;;;;1.50;1.03;;;11.30;99.90;11.30;101361.00;;;;5008206;27;88368;-66
2023/10/04 05:06:27;;;;;;;0.83;0.77;;;11.30;99.90;11.30;101379.00;;;;5008850;27;88122;-63
2023/10/04 05:08:56;;;;;;;1.33;1.00;;;11.30;99.90;11.20;101362.00;;;;5007448;27;88231;-64
2023/10/04 05:11:26;;;;;;;3.33;1.47;;;11.30;99.90;11.20;101366.00;;;;5003556;27;87678;-64
2023/10/04 05:13:56;;;;;;;1.10;0.67;;;11.30;99.90;11.30;101371.00;;;;5006967;27;89361;-65
2023/10/04 05:16:22;;;;;;;2.63;1.27;;;11.30;99.90;11.30;101363.00;;;;5007683;27;87793;-66
2023/10/04 05:18:48;;;;;;;2.47;0.90;;;11.30;99.90;11.30;101370.00;;;;4996626;27;87927;-65
2023/10/04 05:21:15;;;;;;;2.67;0.77;;;11.30;99.90;11.30;101377.00;;;;5008300;27;94209;-65
2023/10/04 05:23:41;;;;;;;1.57;1.47;;;11.30;99.90;11.30;101367.00;;;;5006449;27;90280;-65
2023/10/04 05:26:08;;;;;;;4.03;1.80;;;11.30;99.90;11.30;101365.00;;;;5009762;27;110271;-65
2023/10/04 05:28:35;;;;;;;2.87;1.53;;;11.30;99.90;11.30;101372.00;;;;5008075;27;87775;-65
2023/10/04 05:31:01;;;;;;;1.70;1.10;;;11.30;99.90;11.30;101368.00;;;;4989558;27;107401;-65
2023/10/04 05:33:27;;;;;;;2.00;1.10;;;11.30;99.90;11.30;101374.00;;;;5007984;27;117960;-65
2023/10/04 05:35:55;;;;;;;1.43;0.90;;;11.30;99.90;11.30;101380.00;;;;5006652;27;116993;-64
2023/10/04 05:38:22;;;;;;;3.70;1.53;;;11.30;99.90;11.40;101378.00;;;;5005760;27;87649;-65
2023/10/04 05:40:49;;;;;;;0.60;0.60;;;11.40;99.90;11.40;101376.00;;;;5002897;27;87827;-64
2023/10/04 05:43:16;;;;;;;1.53;0.80;;;11.40;99.90;11.50;101377.00;;;;5001928;27;88066;-64
2023/10/04 05:45:44;;;;;;;0.73;0.57;;;11.50;99.90;11.50;101375.00;;;;5000742;27;109059;-64
2023/10/04 05:48:14;;;;;;;1.57;0.73;;;11.50;99.90;11.60;101382.00;;;;5006509;27;102061;-64
2023/10/04 05:50:42;;;;;;;0.80;0.80;;;11.60;99.90;11.70;101387.00;;;;5006970;27;90914;-65
2023/10/04 05:53:08;;;;;;;0.90;0.77;;;11.60;99.90;11.80;101390.00;;;;5005718;27;88582;-64
2023/10/04 05:55:41;;;;;;;1.80;1.10;;;11.90;99.90;11.90;101392.00;;;;5005739;27;88671;-64
2023/10/04 05:58:07;;;;;;;3.50;1.50;;;11.80;99.90;12.00;101387.00;;;;5002658;27;88090;-66
2023/10/04 06:00:35;;;;;;;1.47;0.90;;;12.20;99.90;12.00;101394.00;;;;5002559;27;88006;-64
2023/10/04 06:03:07;;;;;;;2.77;1.40;;;12.00;99.90;12.10;101393.00;;;;5008491;27;87919;-66
2023/10/04 06:05:37;;;;;;;1.13;1.03;;;12.10;99.90;12.20;101385.00;;;;4982907;27;90097;-64
2023/10/04 06:08:15;;;;;;;1.10;1.00;;;12.10;99.90;12.30;101390.00;;;;5001507;27;88047;-64
2023/10/04 06:10:42;;;;;;;3.23;1.27;;;12.30;99.90;12.40;101395.00;;;;4986620;27;89346;-65
2023/10/04 06:13:11;;;;;;;1.47;0.83;;;12.30;99.90;12.50;101399.00;;;;5003545;27;89618;-65
2023/10/04 06:15:44;;;;;;;1.30;0.90;;;12.60;99.90;12.60;101401.00;;;;5005526;27;89572;-64
2023/10/04 06:18:13;;;;;;;1.17;1.00;;;12.60;99.90;12.80;101387.00;;;;5003811;27;87760;-64
2023/10/04 06:20:40;;;;;;;1.20;1.10;;;12.70;99.90;12.80;101399.00;;;;5005723;27;88195;-65
2023/10/04 06:23:11;;;;;;;2.20;1.37;;;12.80;99.90;13.00;101408.00;;;;5006230;27;88713;-65
2023/10/04 06:25:46;;;;;;;1.67;0.90;;;12.90;99.90;13.10;101414.00;;;;5003253;27;111395;-65
2023/10/04 06:28:13;;;;;;;1.50;0.70;;;13.00;99.90;13.20;101406.00;;;;5003464;27;87370;-65
2023/10/04 06:30:40;;;;;;;2.17;1.57;;;13.10;99.90;13.30;101409.00;;;;5005218;27;88205;-65
2023/10/04 06:33:09;;;;;;;0.70;0.70;;;13.20;99.90;13.30;101417.00;;;;5002291;27;110099;-64
2023/10/04 06:35:37;;;;;;;1.45;1.15;;;13.30;99.90;13.40;101415.00;;;;5003706;27;89135;-65
2023/10/04 06:38:08;;;;;;;5.18;1.27;;;13.30;99.90;13.40;101422.00;;;;5003172;27;87927;-65
2023/10/04 06:40:36;;;;;;;1.30;0.93;;;13.40;99.90;13.50;101432.00;;;;5003710;27;87859;-65
2023/10/04 06:43:05;;;;;;;0.93;0.85;;;13.40;99.90;13.50;101441.00;;;;5004720;27;89114;-65
2023/10/04 06:45:32;;;;;;;1.88;1.40;;;13.50;99.90;13.50;101440.00;;;;5001244;27;95689;-65
2023/10/04 06:48:00;;;;;;;1.27;0.83;;;13.50;99.90;13.60;101450.00;;;;5003744;27;89540;-65
2023/10/04 06:50:35;;;;;;;2.93;1.17;;;13.50;99.90;13.60;101434.00;;;;5001526;27;87978;-64
2023/10/04 06:53:03;;;;;;;1.20;1.00;;;13.60;99.90;13.60;101443.00;;;;5002277;27;86929;-64
2023/10/04 06:55:30;;;;;;;3.13;1.88;;;13.60;99.90;13.70;101440.00;;;;5004949;27;88241;-64
2023/10/04 06:57:56;;;;;;;2.45;1.30;;;13.70;99.90;13.80;101448.00;;;;5005376;27;88779;-65
2023/10/04 07:00:31;;;;;;;1.52;1.13;;;13.70;99.90;13.80;101445.00;;;;4987606;27;108729;-64
2023/10/04 07:02:59;;;;;;;1.65;0.95;;;13.80;99.90;13.80;101445.00;;;;5006319;27;88053;-65
2023/10/04 07:05:35;;;;;;;1.30;0.88;;;13.80;99.90;13.80;101451.00;;;;5004687;27;87917;-65
2023/10/04 07:08:04;;;;;;;2.40;1.42;;;13.80;99.90;13.90;101451.00;;;;4985682;27;87986;-65
2023/10/04 07:10:30;;;;;;;1.70;1.35;;;13.90;99.90;13.90;101454.00;;;;5005760;27;87992;-65
2023/10/04 07:12:57;;;;;;;1.08;0.80;;;13.90;99.90;14.00;101455.00;;;;5000616;27;88346;-66
2023/10/04 07:15:27;;;;;;;1.77;0.90;;;13.90;99.90;14.00;101476.00;;;;5002045;27;108080;-66
2023/10/04 07:17:53;;;;;;;3.25;1.30;;;14.00;99.90;14.10;101473.00;;;;4996821;27;87709;-65
2023/10/04 07:20:19;;;;;;;2.20;1.42;;;14.10;99.90;14.20;101474.00;;;;5003268;27;88112;-65
2023/10/04 07:22:58;;;;;;;1.08;0.70;;;14.20;99.90;14.30;101479.00;;;;5000849;27;88624;-64
2023/10/04 07:25:32;;;;;;;1.30;0.75;;;14.20;99.90;14.40;101478.00;;;;5002254;27;89074;-64
2023/10/04 07:28:02;;;;;;;1.45;0.73;;;14.30;99.90;14.50;101491.00;;;;5001668;27;89763;-64
2023/10/04 07:30:33;;;;;;;1.27;0.77;;;14.40;99.90;14.50;101484.00;;;;5002416;27;88409;-65
2023/10/04 07:32:59;;;;;;;2.20;1.20;;;14.40;99.90;14.60;101487.00;;;;4996581;27;89032;-66
2023/10/04 07:35:26;;;;;;;1.17;1.00;;;14.50;99.90;14.70;101499.00;;;;5007018;27;88034;-65
2023/10/04 07:37:58;;;;;;;2.50;0.90;;;14.70;99.90;14.90;101494.00;;;;5003341;27;88189;-66
2023/10/04 07:40:25;;;;;;;3.83;0.70;;;14.80;99.90;14.90;101491.00;;;;5004609;27;87937;-65
2023/10/04 07:42:53;;;;;;;1.67;1.05;;;14.80;99.90;15.00;101505.00;;;;5000919;27;95967;-64
2023/10/04 07:45:20;;;;;;;4.15;1.00;;;14.90;99.90;14.90;101502.00;;;;4999178;27;87980;-65
2023/10/04 07:47:46;;;;;;;1.25;0.90;;;14.90;99.90;14.90;101512.00;;;;5005565;27;87953;-65
2023/10/04 07:50:18;;;;;;;2.90;1.27;;;14.90;99.90;14.90;101514.00;;;;5001185;27;88732;-65
2023/10/04 07:52:45;;;;;;;0.98;0.77;;;14.80;99.90;14.80;101510.00;;;;5004801;27;88923;-65
2023/10/04 07:55:14;;;;;;;3.97;1.35;;;14.80;99.90;14.80;101509.00;;;;5000647;27;109147;-65
2023/10/04 07:57:44;;;;;;;2.60;1.05;;;14.80;99.90;14.80;101513.00;;;;5001032;27;87982;-65
2023/10/04 08:00:14;;;;;;;0.90;0.85;;;14.80;99.90;14.80;101507.00;;;;4988453;27;87927;-65
2023/10/04 08:02:51;;;;;;;1.40;0.82;;;14.80;99.90;14.80;101513.00;;;;4999072;27;88109;-64
2023/10/04 08:05:23;;;;;;;2.35;0.93;;;14.80;99.90;14.80;101509.00;;;;4999278;27;89043;-66
2023/10/04 08:07:51;;;;;;;4.68;0.82;;;14.80;99.90;14.90;101506.00;;;;5001986;27;87080;-66
2023/10/04 08:10:18;;;;;;;1.20;0.93;;;14.80;99.90;14.90;101521.00;;;;5005477;27;87783;-64
2023/10/04 08:12:45;;;;;;;2.13;1.05;;;14.80;99.90;14.90;101513.00;;;;5004094;27;88112;-65
2023/10/04 08:15:19;;;;;;;1.60;0.80;;;14.80;99.90;15.00;101517.00;;;;5001469;27;88929;-65
2023/10/04 08:17:48;;;;;;;1.40;1.08;;;14.90;99.90;15.10;101521.00;;;;5003533;27;88189;-66
2023/10/04 08:20:18;;;;;;;0.85;0.85;;;14.90;99.90;15.10;101513.00;;;;5006360;27;87983;-64
2023/10/04 08:22:45;;;;;;;0.85;0.85;;;15.00;99.90;15.20;101505.00;;;;5003617;27;108531;-65
2023/10/04 08:25:23;;;;;;;1.30;1.00;;;15.10;99.90;15.30;101514.00;;;;5006063;27;88938;-66
2023/10/04 08:27:49;;;;;;;1.63;1.17;;;15.20;99.90;15.50;101519.00;;;;5009034;27;88033;-65
2023/10/04 08:30:18;;;;;;;5.80;0.88;;;15.30;99.90;15.60;101510.00;;;;5006351;27;108754;-67
2023/10/04 08:32:48;;;;;;;0.95;0.65;;;15.50;99.90;15.80;101513.00;;;;4975701;27;88310;-65
2023/10/04 08:35:23;;;;;;;1.00;0.95;;;15.60;99.90;15.90;101515.00;;;;5004357;27;87832;-65
2023/10/04 08:37:53;;;;;;;2.00;1.25;;;15.70;99.90;16.00;101514.00;;;;5007990;27;87606;-65
2023/10/04 08:40:20;;;;;;;0.80;0.80;;;15.80;99.90;16.00;101530.00;;;;5007705;27;88950;-65
2023/10/04 08:43:04;;;;;;;0.80;0.80;;;15.90;99.80;15.90;101519.00;;;;5004216;27;88533;-65
2023/10/04 08:45:29;;;;;;;3.47;0.90;;;15.90;99.50;16.00;101526.00;;;;5005128;27;88294;-65
2023/10/04 08:47:57;;;;;;;1.85;0.95;;;15.90;99.60;16.20;101524.00;;;;4996629;27;88176;-66
2023/10/04 08:50:54;;;;;;;0.98;0.90;;;16.10;99.50;16.30;101529.00;;;;5003548;27;87955;-64
2023/10/04 08:53:48;;;;;;;0.70;0.70;;;16.20;99.20;16.40;101524.00;;;;4984163;27;87939;-65
2023/10/04 08:56:17;;;;;;;3.10;0.98;;;16.30;99.20;16.50;101532.00;;;;4965856;27;90139;-65
2023/10/04 08:58:44;;;;;;;1.02;0.95;;;16.40;99.20;16.60;101534.00;;;;5005653;27;87084;-64
2023/10/04 09:01:15;;;;;;;1.15;1.05;;;16.50;99.10;16.70;101528.00;;;;5006540;27;87993;-65
2023/10/04 09:03:42;;;;;;;1.92;1.23;;;16.60;98.70;16.70;101532.00;;;;5004072;27;89107;-66
2023/10/04 09:06:14;;;;;;;4.38;1.40;;;16.60;98.40;16.70;101539.00;;;;5003193;27;90483;-65
2023/10/04 09:08:41;;;;;;;1.98;1.15;;;16.60;97.80;16.60;101538.00;;;;5006255;27;87832;-65
2023/10/04 09:11:15;;;;;;;4.90;1.13;;;16.50;97.80;16.60;101538.00;;;;5003606;27;88467;-66
2023/10/04 09:13:44;;;;;;;1.33;1.08;;;16.50;97.90;16.70;101535.00;;;;5005109;27;89067;-66
2023/10/04 09:16:24;;;;;;;0.63;0.63;;;16.50;97.80;16.80;101528.00;;;;5006430;27;88646;-66
2023/10/04 09:19:22;;;;;;;0.95;0.95;;;16.60;97.70;16.90;101532.00;;;;5003407;27;87741;-65
2023/10/04 09:21:51;;;;;;;2.33;1.45;;;16.70;97.80;17.20;101543.00;;;;4987137;27;88089;-66
2023/10/04 09:24:17;;;;;;;1.30;1.05;;;17.00;97.50;17.50;101543.00;;;;5003550;27;116387;-65
2023/10/04 09:26:48;;;;;;;1.60;0.85;;;17.30;97.10;17.70;101550.00;;;;5005816;27;87603;-65
2023/10/04 09:29:15;;;;;;;0.90;0.73;;;17.50;96.40;17.70;101544.00;;;;5002711;27;110293;-65
2023/10/04 09:31:50;;;;;;;0.60;0.60;;;17.60;96.00;17.60;101553.00;;;;5005284;27;89909;-65
2023/10/04 09:34:16;;;;;;;3.33;1.42;;;17.50;95.70;17.50;101546.00;;;;4982360;27;87981;-65
2023/10/04 09:36:42;;;;;;;1.00;0.85;;;17.40;95.60;17.40;101551.00;;;;5003985;27;87845;-64
2023/10/04 09:39:16;;;;;;;1.65;1.08;;;17.40;95.70;17.40;101547.00;;;;5003572;27;87718;-64
2023/10/04 09:41:48;;;;;;;9.65;1.08;;;17.30;95.70;17.40;101551.00;;;;5004741;27;88187;-65
2023/10/04 09:44:24;;;;;;;1.65;0.77;;;17.30;95.70;17.40;101549.00;;;;5003916;27;88177;-65
2023/10/04 09:47:01;;;;;;;5.22;1.48;;;17.30;96.00;17.30;101564.00;;;;5001063;27;88625;-67
2023/10/04 09:49:35;;;;;;;4.88;1.88;;;17.20;95.90;17.30;101552.00;;;;5002687;27;87453;-65
2023/10/04 09:52:16;;;;;;;1.05;0.80;;;17.20;95.70;17.20;101560.00;;;;5003697;27;87910;-65
2023/10/04 09:54:42;;;;;;;2.15;0.93;;;17.10;95.70;17.40;101560.00;;;;5001771;27;88771;-64
2023/10/04 09:57:31;;;;;;;1.50;1.30;;;17.30;96.00;17.60;101567.00;;;;4997863;27;116665;-65
2023/10/04 09:59:59;;;;;;;0.60;0.60;;;17.40;95.90;17.60;101560.00;;;;5001919;27;88329;-65
2023/10/04 10:02:31;;;;;;;1.50;1.08;;;17.50;95.20;17.50;101560.00;;;;5000558;27;88566;-65
2023/10/04 10:04:58;;;;;;;1.17;0.80;;;17.40;95.20;17.40;101554.00;;;;4986705;27;89012;-65
2023/10/04 10:07:31;;;;;;;1.13;0.75;;;17.30;94.90;17.50;101548.00;;;;4992652;27;87905;-63
2023/10/04 10:10:12;;;;;;;3.67;1.23;;;17.40;94.90;17.60;101549.00;;;;5003791;27;87658;-64
2023/10/04 10:12:39;;;;;;;1.38;0.88;;;17.50;94.90;17.80;101539.00;;;;5005999;27;88003;-66
2023/10/04 10:15:07;;;;;;;1.20;0.85;;;17.60;95.00;18.00;101541.00;;;;5003028;27;119316;-65
2023/10/04 10:17:34;;;;;;;3.20;1.02;;;17.80;94.70;18.30;101549.00;;;;4989834;27;91310;-65
2023/10/04 10:20:01;;;;;;;1.23;1.13;;;18.10;94.50;18.70;101541.00;;;;5003658;27;87809;-66
2023/10/04 10:22:27;;;;;;;1.65;1.38;;;18.40;94.00;19.00;101541.00;;;;4986818;27;88933;-64
2023/10/04 10:24:56;;;;;;;1.55;0.90;;;18.70;93.50;19.30;101546.00;;;;5001107;27;89324;-65
2023/10/04 10:27:25;;;;;;;2.92;1.23;;;19.00;92.60;19.40;101544.00;;;;5004401;27;117013;-65
2023/10/04 10:29:52;;;;;;;3.97;1.02;;;19.20;92.00;19.60;101542.00;;;;4984932;27;88736;-64
2023/10/04 10:32:23;;;;;;;6.15;1.30;;;19.40;91.50;19.80;101546.00;;;;5000607;27;89250;-64
2023/10/04 10:34:57;;;;;;;1.67;1.15;;;19.60;91.40;20.00;101561.00;;;;4983835;27;88074;-64
2023/10/04 10:37:24;;;;;;;2.83;0.98;;;19.80;90.90;20.20;101560.00;;;;4986938;27;88121;-66
2023/10/04 10:39:52;;;;;;;1.85;1.10;;;20.00;90.30;20.20;101560.00;;;;5004396;27;86933;-65
2023/10/04 10:42:19;;;;;;;5.55;1.50;;;20.00;90.10;20.10;101564.00;;;;5001920;27;88254;-64
2023/10/04 10:44:47;;;;;;;1.73;1.38;;;20.00;89.40;20.00;101559.00;;;;5004033;27;89027;-66
2023/10/04 10:47:25;;;;;;;0.93;0.77;;;19.90;89.50;19.80;101551.00;;;;5003628;27;101919;-66
2023/10/04 10:49:58;;;;;;;1.02;0.70;;;19.70;88.80;19.70;101553.00;;;;5001363;27;87815;-66
2023/10/04 10:52:42;;;;;;;2.97;1.50;;;19.60;89.20;19.60;101553.00;;;;5002016;27;88126;-65
2023/10/04 10:55:19;;;;;;;4.03;0.75;;;19.50;88.60;19.70;101548.00;;;;5001460;27;89288;-65